This is the latest recevied weather packets stored in our database for station/object KI7MOQ. If no packets are shown the sender has not sent any weather packets the latest 1 day(s).
| Time | Temp. | Humidity | Pressure | Rain* | Wind** | Luminosity | Snow |
|---|---|---|---|---|---|---|---|
| 1778003143 | 14.44° C | 82% | 1019.1 hPa | 0 mm | 0.45 m/s, 116° | 77 W/m² | - |
| 1778002839 | 14.44° C | 82% | 1019.1 hPa | 0 mm | 0 m/s | 60 W/m² | - |
| 1778002536 | 14.44° C | 83% | 1019.2 hPa | 0 mm | 0.45 m/s, 121° | 54 W/m² | - |
| 1778002233 | 14.44° C | 82% | 1019.2 hPa | 0 mm | 0 m/s | 51 W/m² | - |
| 1778001931 | 14.44° C | 82% | 1019 hPa | 0 mm | 0.45 m/s, 116° | 57 W/m² | - |
| 1778001627 | 13.89° C | 83% | 1019.1 hPa | 0 mm | 0 m/s | 82 W/m² | - |
| 1778001322 | 13.89° C | 83% | 1019 hPa | 0 mm | 0 m/s | 78 W/m² | - |
| 1778001019 | 13.89° C | 83% | 1018.9 hPa | 0 mm | 0.45 m/s, 108° | 69 W/m² | - |
| 1778000716 | 13.89° C | 84% | 1019 hPa | 0 mm | 0.45 m/s, 118° | 62 W/m² | - |
| 1778000412 | 13.89° C | 84% | 1018.9 hPa | 0 mm | 0.45 m/s, 125° | 58 W/m² | - |
| 1778000107 | 13.89° C | 85% | 1018.8 hPa | 0 mm | 0 m/s | 59 W/m² | - |
| 1777999804 | 13.89° C | 85% | 1018.9 hPa | 0 mm | 0 m/s | 63 W/m² | - |
| 1777999500 | 13.33° C | 85% | 1018.8 hPa | 0 mm | 0 m/s | 62 W/m² | - |
| 1777999198 | 13.89° C | 85% | 1018.6 hPa | 0 mm | 0.45 m/s, 121° | 61 W/m² | - |
| 1777998896 | 13.33° C | 86% | 1018.7 hPa | 0 mm | 0.45 m/s, 112° | 65 W/m² | - |
| 1777998595 | 13.33° C | 86% | 1018.8 hPa | 0 mm | 0.45 m/s, 111° | 54 W/m² | - |
| 1777998291 | 13.33° C | 87% | 1018.7 hPa | 0 mm | 0 m/s | 61 W/m² | - |
| 1777997987 | 13.33° C | 87% | 1018.8 hPa | 0 mm | 0.45 m/s, 113° | 57 W/m² | - |
| 1777997684 | 13.33° C | 87% | 1018.7 hPa | 0 mm | 0.45 m/s, 106° | 52 W/m² | - |
| 1777997382 | 12.78° C | 88% | 1018.6 hPa | 0 mm | 0 m/s | 42 W/m² | - |
| 1777997080 | 13.33° C | 88% | 1018.8 hPa | 0 mm | 0.45 m/s, 116° | 35 W/m² | - |
| 1777996776 | 13.33° C | 87% | 1018.7 hPa | 0 mm | 0.45 m/s, 111° | 35 W/m² | - |
| 1777996473 | 13.33° C | 87% | 1018.7 hPa | 0 mm | 0 m/s | 34 W/m² | - |
| 1777996169 | 13.33° C | 87% | 1018.7 hPa | 0 mm | 0.45 m/s, 114° | 36 W/m² | - |
| 1777995860 | 12.78° C | 87% | 1018.5 hPa | 0 mm | 0 m/s | 41 W/m² | - |
* Rain latest hour (hover to see other rain measurements)
** Current wind speed in m/s (hover to see current wind gust speed)